createdAt,value
2018-05-10T00:00:15.621Z,97.50
2018-05-10T00:02:42.951Z,97.60
2018-05-10T00:05:10.701Z,97.50
2018-05-10T00:07:39.911Z,97.80
2018-05-10T00:10:07.321Z,97.70
2018-05-10T00:12:36.301Z,97.50
2018-05-10T00:15:03.912Z,97.60
2018-05-10T00:17:31.381Z,97.80
2018-05-10T00:20:00.791Z,97.90
2018-05-10T00:22:28.130Z,97.90
2018-05-10T00:24:57.361Z,97.80
2018-05-10T00:27:29.911Z,97.80
2018-05-10T00:29:57.403Z,97.70
2018-05-10T00:32:28.940Z,97.60
2018-05-10T00:34:57.214Z,97.60
2018-05-10T00:37:25.431Z,97.90
2018-05-10T00:39:52.780Z,97.70
2018-05-10T00:42:20.351Z,97.80
2018-05-10T00:44:48.872Z,97.70
2018-05-10T00:47:17.302Z,97.60
2018-05-10T00:49:45.251Z,97.70
2018-05-10T00:52:12.691Z,97.60
2018-05-10T00:54:53.897Z,97.70
2018-05-10T00:57:21.562Z,97.60
2018-05-10T00:59:53.826Z,97.50
2018-05-10T01:02:21.152Z,97.30
2018-05-10T01:04:48.785Z,97.00
2018-05-10T01:07:16.371Z,96.90
2018-05-10T01:09:48.291Z,96.90
2018-05-10T01:12:16.412Z,96.90
2018-05-10T01:14:43.846Z,97.00
2018-05-10T01:17:12.422Z,97.40
2018-05-10T01:19:40.783Z,97.40
2018-05-10T01:22:08.206Z,97.20
2018-05-10T01:24:35.892Z,97.20
2018-05-10T01:27:03.834Z,97.20
2018-05-10T01:29:31.973Z,97.50
2018-05-10T01:31:59.471Z,97.50
2018-05-10T01:34:26.982Z,97.40
2018-05-10T01:36:54.882Z,97.40
2018-05-10T01:39:23.233Z,97.20
2018-05-10T01:41:51.047Z,97.20
2018-05-10T01:44:20.882Z,97.10
2018-05-10T01:46:48.344Z,97.10
2018-05-10T01:49:16.591Z,97.50
2018-05-10T01:51:44.101Z,97.50
2018-05-10T01:54:12.653Z,97.70
2018-05-10T01:56:39.993Z,97.60
2018-05-10T01:59:08.091Z,97.50
2018-05-10T02:01:36.182Z,97.30
2018-05-10T02:04:03.881Z,97.30
2018-05-10T02:06:31.321Z,97.20
2018-05-10T02:08:59.117Z,97.10
2018-05-10T02:11:29.602Z,97.00
2018-05-10T02:13:57.161Z,97.00
2018-05-10T02:16:24.547Z,96.90
2018-05-10T02:18:53.683Z,96.90
2018-05-10T02:21:23.371Z,97.60
2018-05-10T02:23:51.711Z,97.60
2018-05-10T02:26:19.063Z,97.50
2018-05-10T02:28:48.176Z,97.50
2018-05-10T02:31:15.584Z,97.50
2018-05-10T02:33:42.953Z,97.50
2018-05-10T02:36:10.682Z,97.60
2018-05-10T02:38:38.972Z,97.60
2018-05-10T02:41:06.262Z,97.50
2018-05-10T02:43:33.972Z,97.50
2018-05-10T02:46:02.073Z,97.50
2018-05-10T02:48:29.662Z,97.50
2018-05-10T02:50:57.002Z,97.50
2018-05-10T02:53:24.683Z,97.50
2018-05-10T02:55:52.182Z,97.50
2018-05-10T02:58:19.672Z,97.40
2018-05-10T03:00:47.201Z,97.40
2018-05-10T03:03:15.742Z,98.00
2018-05-10T03:05:43.691Z,98.00
2018-05-10T03:08:11.472Z,98.30
2018-05-10T03:10:41.692Z,98.30
2018-05-10T03:13:09.302Z,98.30
2018-05-10T03:15:37.075Z,98.20
2018-05-10T03:18:04.451Z,98.10
2018-05-10T03:20:31.992Z,98.00
2018-05-10T03:22:59.257Z,98.00
2018-05-10T03:25:27.495Z,98.10
2018-05-10T03:27:55.032Z,98.10
2018-05-10T03:30:22.641Z,98.00
2018-05-10T03:32:49.829Z,98.00
2018-05-10T03:35:18.154Z,98.40
2018-05-10T03:37:45.721Z,98.20
2018-05-10T03:40:13.292Z,98.20
2018-05-10T03:42:40.822Z,98.20
2018-05-10T03:45:08.373Z,98.20
2018-05-10T03:47:36.252Z,98.10
2018-05-10T03:50:03.942Z,98.00
2018-05-10T03:52:31.312Z,98.00
2018-05-10T03:54:59.751Z,98.10
2018-05-10T03:57:27.481Z,98.00
2018-05-10T03:59:55.581Z,98.30
2018-05-10T04:05:51.722Z,98.30
2018-05-10T04:08:38.935Z,97.90
2018-05-10T04:11:34.856Z,96.60
2018-05-10T04:14:02.544Z,95.80
2018-05-10T04:16:29.942Z,94.50
2018-05-10T04:18:57.371Z,93.80
2018-05-10T04:21:25.224Z,93.10
2018-05-10T04:23:53.813Z,92.00
2018-05-10T04:26:23.651Z,91.80
2018-05-10T04:28:53.652Z,90.70
2018-05-10T04:31:21.303Z,89.10
2018-05-10T04:33:48.813Z,86.90
2018-05-10T04:36:16.262Z,85.80
2018-05-10T04:38:43.643Z,83.40
2018-05-10T04:41:11.045Z,81.00
2018-05-10T04:43:38.817Z,77.70
2018-05-10T04:46:06.302Z,76.30
2018-05-10T04:48:36.073Z,79.10
2018-05-10T04:51:03.778Z,78.40
2018-05-10T04:53:31.222Z,78.00
2018-05-10T04:55:58.802Z,78.50
2018-05-10T04:58:27.241Z,78.20
2018-05-10T05:00:55.742Z,79.90
2018-05-10T05:03:23.283Z,79.90
2018-05-10T05:05:51.253Z,81.80
2018-05-10T05:08:18.672Z,82.20
2018-05-10T05:10:47.923Z,82.90
2018-05-10T05:13:15.613Z,83.90
2018-05-10T05:15:43.093Z,84.60
2018-05-10T05:18:10.482Z,83.30
2018-05-10T05:20:38.951Z,81.40
2018-05-10T05:23:07.051Z,80.80
2018-05-10T05:25:34.351Z,80.70
2018-05-10T05:28:02.401Z,79.10
2018-05-10T05:30:29.775Z,79.40
2018-05-10T05:32:57.345Z,78.40
2018-05-10T05:35:24.903Z,77.70
2018-05-10T05:37:52.087Z,77.50
2018-05-10T05:40:19.861Z,79.00
2018-05-10T05:42:49.605Z,79.30
2018-05-10T05:45:17.041Z,78.90
2018-05-10T05:47:44.740Z,77.00
2018-05-10T05:50:12.453Z,76.70
2018-05-10T05:52:40.251Z,76.40
2018-05-10T05:55:07.725Z,77.00
2018-05-10T05:57:36.121Z,76.90
2018-05-10T06:00:03.871Z,78.70
2018-05-10T06:02:31.550Z,79.90
2018-05-10T06:04:59.805Z,78.60
2018-05-10T06:07:26.879Z,78.60
2018-05-10T06:09:55.261Z,82.90
2018-05-10T06:12:23.401Z,84.00
2018-05-10T06:14:50.832Z,83.80
2018-05-10T06:17:18.403Z,83.20
2018-05-10T06:19:45.901Z,85.60
2018-05-10T06:22:13.351Z,86.00
2018-05-10T06:24:40.955Z,88.20
2018-05-10T06:27:08.425Z,84.90
2018-05-10T06:29:36.083Z,83.00
2018-05-10T06:32:03.592Z,83.00
2018-05-10T06:34:32.194Z,84.30
2018-05-10T06:36:59.548Z,84.30
2018-05-10T06:39:27.661Z,86.50
2018-05-10T06:41:55.311Z,86.50
2018-05-10T06:44:22.853Z,87.00
2018-05-10T06:46:50.597Z,82.70
2018-05-10T06:49:18.911Z,81.80
2018-05-10T06:51:46.383Z,83.30
2018-05-10T06:54:14.151Z,83.30
2018-05-10T06:56:41.221Z,83.30
2018-05-10T06:59:08.762Z,81.00
2018-05-10T07:01:36.089Z,82.30
2018-05-10T07:04:03.952Z,83.40
2018-05-10T07:06:31.624Z,82.50
2018-05-10T07:08:59.172Z,81.30
2018-05-10T07:11:26.653Z,80.80
2018-05-10T07:13:54.172Z,78.90
2018-05-10T07:16:21.823Z,79.30
2018-05-10T07:18:49.543Z,80.80
2018-05-10T07:21:17.743Z,80.40
2018-05-10T07:23:46.302Z,81.00
2018-05-10T07:26:14.072Z,81.80
2018-05-10T07:28:41.793Z,80.60
2018-05-10T07:31:09.402Z,82.00
2018-05-10T07:33:41.192Z,83.80
2018-05-10T07:36:08.953Z,83.80
2018-05-10T07:38:36.504Z,84.10
2018-05-10T07:41:04.992Z,84.20
2018-05-10T07:43:33.903Z,84.50
2018-05-10T07:46:02.922Z,83.30
2018-05-10T07:48:31.652Z,84.40
2018-05-10T07:50:59.174Z,82.20
2018-05-10T07:53:26.832Z,81.50
2018-05-10T07:55:54.182Z,82.50
2018-05-10T07:58:21.883Z,80.00
2018-05-10T08:00:54.422Z,81.90
2018-05-10T08:03:25.202Z,78.30
2018-05-10T08:05:53.515Z,78.20
2018-05-10T08:08:22.203Z,78.40
2018-05-10T08:10:49.701Z,79.00
2018-05-10T08:13:17.802Z,79.90
2018-05-10T08:15:45.652Z,80.40
2018-05-10T08:18:13.095Z,76.20
2018-05-10T08:20:41.432Z,76.50
2018-05-10T08:23:09.091Z,76.30
2018-05-10T08:25:36.482Z,74.80
2018-05-10T08:28:04.094Z,76.10
2018-05-10T08:30:31.632Z,75.90
2018-05-10T08:32:59.312Z,73.40
2018-05-10T08:35:26.793Z,72.30
2018-05-10T08:37:54.353Z,73.20
2018-05-10T08:40:22.262Z,73.80
2018-05-10T08:42:50.799Z,67.40
2018-05-10T08:45:20.060Z,67.30
2018-05-10T08:47:49.404Z,68.90
2018-05-10T08:50:17.392Z,69.00
2018-05-10T08:52:45.713Z,66.80
2018-05-10T08:55:16.488Z,66.30
2018-05-10T08:57:44.282Z,66.70
2018-05-10T09:00:11.595Z,65.90
2018-05-10T09:02:40.293Z,65.90
2018-05-10T09:05:07.924Z,68.30
2018-05-10T09:07:35.602Z,67.60
2018-05-10T09:10:04.001Z,69.10
2018-05-10T09:12:31.702Z,66.50
2018-05-10T09:15:00.202Z,69.70
2018-05-10T09:17:27.662Z,69.60
2018-05-10T09:19:56.201Z,65.60
2018-05-10T09:22:24.072Z,64.30
2018-05-10T09:24:56.342Z,59.80
2018-05-10T09:27:24.664Z,58.50
2018-05-10T09:29:52.571Z,58.30
2018-05-10T09:32:19.752Z,58.40
2018-05-10T09:34:47.532Z,58.80
2018-05-10T09:37:16.181Z,63.30
2018-05-10T09:39:44.792Z,63.20
2018-05-10T09:42:12.812Z,58.90
2018-05-10T09:44:41.181Z,60.00
2018-05-10T09:47:12.335Z,57.00
2018-05-10T09:49:41.171Z,60.70
2018-05-10T09:52:10.302Z,56.30
2018-05-10T09:54:38.333Z,56.30
2018-05-10T09:57:06.114Z,60.70
2018-05-10T09:59:33.289Z,58.40
2018-05-10T10:02:02.613Z,59.10
2018-05-10T10:04:32.130Z,55.80
2018-05-10T10:07:00.445Z,55.70
2018-05-10T10:09:28.934Z,57.30
2018-05-10T10:11:56.411Z,58.60
2018-05-10T10:14:24.013Z,57.10
2018-05-10T10:16:52.612Z,59.10
2018-05-10T10:19:20.132Z,57.40
2018-05-10T10:21:48.092Z,57.50
2018-05-10T10:24:16.442Z,57.80
2018-05-10T10:26:45.074Z,55.80
2018-05-10T10:29:13.643Z,53.80
2018-05-10T10:31:41.342Z,53.80
2018-05-10T10:34:08.362Z,53.60
2018-05-10T10:36:35.842Z,54.80
2018-05-10T10:39:03.122Z,50.20
2018-05-10T10:41:31.646Z,52.50
2018-05-10T10:43:59.573Z,49.30
2018-05-10T10:46:27.982Z,50.40
2018-05-10T10:48:56.002Z,53.10
2018-05-10T10:51:23.733Z,48.40
2018-05-10T10:53:51.459Z,50.90
2018-05-10T10:56:20.292Z,50.20
2018-05-10T10:58:48.093Z,49.80
2018-05-10T11:01:15.542Z,51.70
2018-05-10T11:03:43.692Z,48.40
2018-05-10T11:06:12.962Z,46.00
2018-05-10T11:08:40.683Z,45.90
2018-05-10T11:11:08.652Z,45.50
2018-05-10T11:13:36.159Z,45.50
2018-05-10T11:16:05.053Z,43.70
2018-05-10T11:18:32.742Z,46.40
2018-05-10T11:21:01.102Z,47.60
2018-05-10T11:23:28.611Z,47.50
2018-05-10T11:25:56.321Z,46.80
2018-05-10T11:28:24.792Z,48.40
2018-05-10T11:30:53.181Z,49.70
2018-05-10T11:33:20.958Z,49.60
2018-05-10T11:35:48.833Z,49.50
2018-05-10T11:38:22.562Z,48.30
2018-05-10T11:40:50.487Z,48.50
2018-05-10T11:43:19.031Z,47.70
2018-05-10T11:45:49.233Z,45.50
2018-05-10T11:48:18.102Z,47.80
2018-05-10T11:50:48.122Z,44.10
2018-05-10T11:53:15.793Z,45.30
2018-05-10T11:55:43.685Z,45.90
2018-05-10T11:58:11.412Z,46.50
2018-05-10T12:00:38.972Z,46.20
2018-05-10T12:03:06.892Z,43.00
2018-05-10T12:05:35.212Z,43.10
2018-05-10T12:08:02.872Z,43.00
2018-05-10T12:10:30.483Z,42.10
2018-05-10T12:12:58.895Z,44.00
2018-05-10T12:15:26.862Z,43.90
2018-05-10T12:17:54.294Z,42.10
2018-05-10T12:20:23.106Z,44.00
2018-05-10T12:22:51.602Z,43.90
2018-05-10T12:25:20.393Z,45.60
2018-05-10T12:27:48.182Z,45.70
2018-05-10T12:30:15.325Z,43.40
2018-05-10T12:32:42.722Z,42.60
2018-05-10T12:35:11.189Z,40.30
2018-05-10T12:37:38.872Z,40.30
2018-05-10T12:40:06.354Z,42.20
2018-05-10T12:42:33.853Z,41.50
2018-05-10T12:45:01.632Z,41.90
2018-05-10T12:47:29.862Z,41.10
2018-05-10T12:49:57.372Z,41.20
2018-05-10T12:52:25.493Z,43.30
2018-05-10T12:54:53.174Z,43.40
2018-05-10T12:57:21.362Z,41.70
2018-05-10T12:59:48.771Z,43.10
2018-05-10T13:02:16.331Z,41.50
2018-05-10T13:04:44.312Z,46.00
2018-05-10T13:07:13.200Z,40.40
2018-05-10T13:09:41.023Z,41.40
2018-05-10T13:12:08.732Z,40.60
2018-05-10T13:14:37.502Z,45.50
2018-05-10T13:17:06.562Z,45.60
2018-05-10T13:19:35.192Z,44.50
2018-05-10T13:22:02.972Z,45.10
2018-05-10T13:24:32.111Z,42.70
2018-05-10T13:27:00.862Z,42.70
2018-05-10T13:29:30.261Z,44.10
2018-05-10T13:31:58.992Z,43.60
2018-05-10T13:34:27.344Z,45.00
2018-05-10T13:36:55.502Z,44.80
2018-05-10T13:39:23.522Z,44.70
2018-05-10T13:41:51.592Z,43.90
2018-05-10T13:44:20.513Z,41.50
2018-05-10T13:46:52.606Z,40.40
2018-05-10T13:49:21.072Z,41.20
2018-05-10T13:52:13.144Z,44.20
2018-05-10T13:54:46.072Z,41.10
2018-05-10T13:57:16.083Z,41.70
2018-05-10T13:59:49.578Z,43.90
2018-05-10T14:02:18.432Z,44.30
2018-05-10T14:04:47.414Z,44.70
2018-05-10T14:07:19.333Z,45.70
2018-05-10T14:10:00.551Z,45.60
2018-05-10T14:12:29.883Z,45.20
2018-05-10T14:14:57.804Z,45.30
2018-05-10T14:17:27.085Z,45.90
2018-05-10T14:19:55.090Z,45.80
2018-05-10T14:22:26.852Z,44.80
2018-05-10T14:24:54.270Z,44.30
2018-05-10T14:27:34.458Z,47.90
2018-05-10T14:33:08.625Z,48.30
2018-05-10T14:35:40.362Z,47.50
2018-05-10T14:38:08.941Z,46.10
2018-05-10T14:40:37.322Z,46.90
2018-05-10T14:43:08.821Z,46.90
2018-05-10T14:45:42.897Z,48.20
2018-05-10T14:48:29.214Z,48.90
2018-05-10T14:53:51.204Z,51.10
2018-05-10T14:56:21.020Z,50.60
2018-05-10T14:58:56.532Z,52.90
2018-05-10T15:01:39.016Z,55.40
2018-05-10T15:04:10.633Z,57.90
2018-05-10T15:06:38.621Z,59.10
2018-05-10T15:09:13.482Z,60.50
2018-05-10T15:11:54.609Z,62.30
2018-05-10T15:14:23.151Z,64.00
2018-05-10T15:17:06.204Z,64.30
2018-05-10T15:19:38.535Z,64.60
2018-05-10T15:22:09.538Z,65.90
2018-05-10T15:24:47.694Z,65.90
2018-05-10T15:27:15.786Z,66.50
2018-05-10T15:29:45.742Z,65.90
2018-05-10T15:32:22.352Z,68.20
2018-05-10T15:34:55.156Z,69.80
2018-05-10T15:37:24.021Z,68.60
2018-05-10T15:39:51.972Z,69.10
2018-05-10T15:42:22.082Z,67.80
2018-05-10T15:44:50.722Z,67.90
2018-05-10T15:47:19.402Z,65.70
2018-05-10T15:49:48.692Z,66.50
2018-05-10T15:52:16.302Z,66.40
2018-05-10T15:54:44.831Z,67.10
2018-05-10T15:57:12.522Z,65.70
2018-05-10T15:59:41.552Z,64.80
2018-05-10T16:02:11.986Z,63.00
2018-05-10T16:04:39.482Z,62.90
2018-05-10T16:07:08.224Z,63.00
2018-05-10T16:09:45.328Z,61.50
2018-05-10T16:12:14.053Z,61.50
2018-05-10T16:14:41.592Z,59.90
2018-05-10T16:17:09.141Z,61.00
2018-05-10T16:19:36.732Z,60.60
2018-05-10T16:22:04.252Z,60.00
2018-05-10T16:24:32.352Z,60.30
2018-05-10T16:27:00.062Z,60.90
2018-05-10T16:29:27.702Z,60.80
2018-05-10T16:31:57.282Z,59.50
2018-05-10T16:34:25.476Z,59.40
2018-05-10T16:36:53.052Z,60.00
2018-05-10T16:39:20.664Z,60.80
2018-05-10T16:41:48.311Z,60.60
2018-05-10T16:44:15.882Z,60.10
2018-05-10T16:46:43.551Z,60.90
2018-05-10T16:49:11.392Z,60.30
2018-05-10T16:51:39.082Z,63.50
2018-05-10T16:54:07.692Z,60.70
2018-05-10T16:56:35.341Z,60.70
2018-05-10T16:59:03.113Z,61.50
2018-05-10T17:01:31.542Z,60.90
2018-05-10T17:03:59.182Z,57.20
2018-05-10T17:06:26.932Z,56.00
2018-05-10T17:08:54.752Z,54.10
2018-05-10T17:11:23.052Z,53.30
2018-05-10T17:13:50.861Z,53.30
2018-05-10T17:16:19.351Z,51.30
2018-05-10T17:18:47.135Z,52.50
2018-05-10T17:21:14.771Z,52.40
2018-05-10T17:23:42.784Z,53.30
2018-05-10T17:26:11.332Z,54.20
2018-05-10T17:28:39.192Z,54.30
2018-05-10T17:31:09.392Z,54.80
2018-05-10T17:33:36.922Z,55.80
2018-05-10T17:36:04.581Z,57.00
2018-05-10T17:38:32.642Z,56.90
2018-05-10T17:43:56.242Z,60.10
2018-05-10T17:46:43.272Z,61.10
2018-05-10T17:49:15.472Z,62.20
2018-05-10T17:59:05.094Z,68.10
2018-05-10T18:01:34.892Z,68.70
2018-05-10T18:04:03.251Z,68.80
2018-05-10T18:06:31.082Z,68.80
2018-05-10T18:09:05.913Z,69.70
2018-05-10T18:11:33.691Z,70.30
2018-05-10T18:14:01.476Z,71.10
2018-05-10T18:16:31.122Z,72.50
2018-05-10T18:19:02.265Z,72.50
2018-05-10T18:21:30.542Z,73.90
2018-05-10T18:23:58.731Z,73.60
2018-05-10T18:26:27.294Z,73.70
2018-05-10T18:28:56.571Z,74.80
2018-05-10T18:31:26.732Z,74.80
2018-05-10T18:33:54.472Z,75.20
2018-05-10T18:36:22.102Z,75.20
2018-05-10T18:38:50.163Z,75.70
2018-05-10T18:41:18.402Z,76.10
2018-05-10T18:43:46.481Z,77.50
2018-05-10T18:46:14.182Z,76.80
2018-05-10T18:48:43.952Z,76.60
2018-05-10T18:51:12.183Z,76.60
2018-05-10T18:53:43.452Z,76.70
2018-05-10T18:56:11.102Z,76.60
2018-05-10T18:58:38.692Z,76.60
2018-05-10T19:01:06.582Z,76.80
2018-05-10T19:03:34.522Z,76.30
2018-05-10T19:06:04.724Z,76.60
2018-05-10T19:08:32.312Z,78.50
2018-05-10T19:11:00.022Z,78.10
2018-05-10T19:13:28.612Z,78.40
2018-05-10T19:15:57.724Z,78.20
2018-05-10T19:18:25.553Z,78.20
2018-05-10T19:20:55.176Z,78.40
2018-05-10T19:23:23.792Z,77.40
2018-05-10T19:25:53.412Z,77.30
2018-05-10T19:28:21.702Z,77.10
2018-05-10T19:30:51.032Z,76.20
2018-05-10T19:33:18.962Z,76.20
2018-05-10T19:35:49.713Z,75.50
2018-05-10T19:38:17.732Z,75.40
2018-05-10T19:40:45.422Z,76.20
2018-05-10T19:43:13.132Z,76.50
2018-05-10T19:45:41.639Z,76.20
2018-05-10T19:48:09.262Z,76.10
2018-05-10T19:50:37.632Z,75.40
2018-05-10T19:53:05.242Z,75.40
2018-05-10T19:55:33.193Z,75.80
2018-05-10T19:58:00.522Z,76.00
2018-05-10T20:00:28.412Z,74.30
2018-05-10T20:02:57.412Z,74.80
2018-05-10T20:05:27.942Z,75.10
2018-05-10T20:08:00.294Z,75.10
2018-05-10T20:10:30.472Z,74.60
2018-05-10T20:12:58.113Z,74.70
2018-05-10T20:15:26.562Z,75.30
2018-05-10T20:17:57.812Z,75.80
2018-05-10T20:20:27.022Z,75.80
2018-05-10T20:22:55.346Z,76.60
2018-05-10T20:25:24.652Z,76.50
2018-05-10T20:27:52.792Z,77.00
2018-05-10T20:30:20.582Z,77.70
2018-05-10T20:32:49.442Z,77.40
2018-05-10T20:35:18.732Z,78.00
2018-05-10T20:37:48.613Z,78.30
2018-05-10T20:40:16.583Z,79.10
2018-05-10T20:42:46.722Z,80.30
2018-05-10T20:45:15.622Z,82.20
2018-05-10T20:47:43.882Z,82.10
2018-05-10T20:50:18.292Z,82.90
2018-05-10T20:52:48.622Z,82.90
2018-05-10T20:55:18.012Z,84.40
2018-05-10T20:57:46.393Z,85.50
2018-05-10T21:00:14.362Z,86.40
2018-05-10T21:02:42.602Z,87.00
2018-05-10T21:05:10.042Z,87.60
2018-05-10T21:07:40.051Z,88.10
2018-05-10T21:10:07.952Z,88.80
2018-05-10T21:12:45.121Z,89.40
2018-05-10T21:15:12.791Z,90.00
2018-05-10T21:17:41.531Z,90.50
2018-05-10T21:20:09.451Z,90.80
2018-05-10T21:22:36.982Z,90.80
2018-05-10T21:25:05.664Z,90.90
2018-05-10T21:27:33.601Z,90.80
2018-05-10T21:30:03.471Z,91.30
2018-05-10T21:32:31.072Z,91.30
2018-05-10T21:34:58.684Z,91.30
2018-05-10T21:37:26.432Z,91.50
2018-05-10T21:39:55.451Z,91.80
2018-05-10T21:42:26.905Z,92.30
2018-05-10T21:44:54.362Z,92.40
2018-05-10T21:47:22.392Z,92.50
2018-05-10T21:50:04.682Z,93.10
2018-05-10T21:52:33.217Z,93.00
2018-05-10T21:55:00.908Z,92.80
2018-05-10T21:57:29.241Z,93.20
2018-05-10T21:59:56.631Z,93.00
2018-05-10T22:02:24.221Z,93.10
2018-05-10T22:04:51.594Z,92.90
2018-05-10T22:07:19.181Z,92.80
2018-05-10T22:09:46.652Z,92.50
2018-05-10T22:12:14.932Z,92.50
2018-05-10T22:14:42.483Z,92.50
2018-05-10T22:17:10.193Z,92.40
2018-05-10T22:19:37.742Z,92.40
2018-05-10T22:22:06.421Z,92.50
2018-05-10T22:24:34.626Z,92.40
2018-05-10T22:27:04.703Z,92.40
2018-05-10T22:29:32.702Z,92.50
2018-05-10T22:32:00.632Z,92.50
2018-05-10T22:34:28.732Z,92.50
2018-05-10T22:36:56.911Z,92.60
2018-05-10T22:39:24.441Z,92.60
2018-05-10T22:41:51.872Z,92.60
2018-05-10T22:44:19.365Z,92.60
2018-05-10T22:46:46.711Z,92.90
2018-05-10T22:49:14.504Z,93.10
2018-05-10T22:51:42.002Z,93.00
2018-05-10T22:54:09.711Z,92.90
2018-05-10T22:56:37.282Z,92.90
2018-05-10T22:59:05.331Z,92.90
2018-05-10T23:01:35.072Z,92.90
2018-05-10T23:04:03.441Z,92.80
2018-05-10T23:06:32.257Z,92.80
2018-05-10T23:08:59.781Z,92.80
2018-05-10T23:11:29.361Z,92.80
2018-05-10T23:13:56.922Z,92.80
2018-05-10T23:16:27.180Z,92.70
2018-05-10T23:18:57.722Z,92.70
2018-05-10T23:21:28.171Z,92.70
2018-05-10T23:23:55.761Z,92.70
2018-05-10T23:26:24.551Z,92.70
2018-05-10T23:28:53.352Z,92.80
2018-05-10T23:31:22.721Z,92.80
2018-05-10T23:33:50.181Z,92.80
2018-05-10T23:36:19.321Z,92.80
2018-05-10T23:38:46.845Z,92.80
2018-05-10T23:41:14.441Z,92.80
2018-05-10T23:43:47.281Z,92.80
2018-05-10T23:46:14.641Z,92.80
2018-05-10T23:48:42.141Z,92.80
2018-05-10T23:51:09.265Z,92.80
2018-05-10T23:53:38.183Z,92.70
2018-05-10T23:56:05.512Z,92.70
2018-05-10T23:58:33.322Z,92.60
